Time;durP1;ratioP1;P1;durP2;ratioP2;P2;SDS_P1;SDS_P2;PMS_P1;PMS_P2;Temp;Humidity;BMP_temperature;BMP_pressure;BME280_temperature;BME280_humidity;BME280_pressure;Samples;Min_cycle;Max_cycle;Signal;HPM_P1;HPM_P2
2022/04/13 00:00:34;;;;;;;4.23;2.87;;;;;14.80;100639.00;;;;4924741;28;20617;-69
2022/04/13 00:03:20;;;;;;;6.40;3.07;;;;;14.90;100641.00;;;;4927832;28;20367;-67
2022/04/13 00:06:06;;;;;;;6.90;3.30;;;;;14.80;100639.00;;;;4914050;28;20822;-68
2022/04/13 00:08:55;;;;;;;4.00;2.83;;;;;14.80;100643.00;;;;4919573;28;20232;-66
2022/04/13 00:11:42;;;;;;;4.30;3.07;;;;;14.80;100640.00;;;;4919802;28;20376;-67
2022/04/13 00:14:29;;;;;;;5.40;3.03;;;;;14.70;100640.00;;;;4916142;28;20295;-67
2022/04/13 00:17:17;;;;;;;5.07;2.80;;;;;14.70;100639.00;;;;4924875;28;20710;-65
2022/04/13 00:20:04;;;;;;;5.37;2.83;;;;;14.60;100638.00;;;;4911222;29;20236;-70
2022/04/13 00:22:50;;;;;;;4.30;2.93;;;;;14.60;100641.00;;;;4912624;29;20779;-68
2022/04/13 00:25:39;;;;;;;3.80;2.87;;;;;14.40;100635.00;;;;4912520;29;20272;-70
2022/04/13 00:28:25;;;;;;;4.73;3.37;;;;;14.50;100642.00;;;;4910537;29;20840;-68
2022/04/13 00:31:11;;;;;;;4.47;3.00;;;;;14.40;100653.00;;;;4909715;29;20244;-69
2022/04/13 00:33:59;;;;;;;5.57;3.17;;;;;14.30;100644.00;;;;4907181;29;20787;-64
2022/04/13 00:36:45;;;;;;;4.63;2.70;;;;;14.30;100649.00;;;;4912882;29;20719;-69
2022/04/13 00:39:32;;;;;;;4.17;3.33;;;;;14.20;100645.00;;;;4911166;28;20235;-68
2022/04/13 00:42:20;;;;;;;3.77;2.97;;;;;14.20;100637.00;;;;4909838;29;20238;-68
2022/04/13 00:45:07;;;;;;;4.40;3.07;;;;;14.20;100651.00;;;;4909907;29;20234;-67
2022/04/13 00:47:53;;;;;;;3.77;2.73;;;;;14.10;100642.00;;;;4918875;28;20237;-67
2022/04/13 00:50:41;;;;;;;4.53;3.10;;;;;14.00;100639.00;;;;4927006;28;20330;-68
2022/04/13 00:53:34;;;;;;;6.70;3.17;;;;;14.00;100648.00;;;;4913459;28;21018;-67
2022/04/13 00:56:24;;;;;;;7.47;3.37;;;;;14.00;100655.00;;;;4926459;28;20268;-64
2022/04/13 00:59:13;;;;;;;4.43;3.07;;;;;13.90;100647.00;;;;4907894;29;20325;-67
2022/04/13 01:01:59;;;;;;;6.87;3.27;;;;;13.90;100649.00;;;;4919564;28;20242;-69
2022/04/13 01:04:47;;;;;;;6.47;2.80;;;;;14.00;100650.00;;;;4926841;28;20237;-67
2022/04/13 01:07:36;;;;;;;6.80;3.23;;;;;13.90;100654.00;;;;4915056;28;20290;-67
2022/04/13 01:10:24;;;;;;;6.70;3.27;;;;;13.90;100651.00;;;;4907773;29;20242;-68
2022/04/13 01:13:10;;;;;;;4.23;2.73;;;;;13.80;100660.00;;;;4921406;28;20237;-68
2022/04/13 01:15:57;;;;;;;3.53;2.90;;;;;13.80;100662.00;;;;4907673;29;20313;-66
2022/04/13 01:18:43;;;;;;;4.77;3.43;;;;;13.80;100656.00;;;;4908123;29;20240;-66
2022/04/13 01:21:44;;;;;;;4.30;3.20;;;;;13.70;100663.00;;;;4907439;29;20803;-66
2022/04/13 01:24:32;;;;;;;6.13;3.13;;;;;13.80;100666.00;;;;4907883;29;20365;-67
2022/04/13 01:27:19;;;;;;;5.97;3.27;;;;;13.70;100663.00;;;;4919288;29;20252;-68
2022/04/13 01:30:09;;;;;;;6.30;3.37;;;;;13.70;100652.00;;;;4911993;29;20229;-68
2022/04/13 01:32:55;;;;;;;3.70;2.90;;;;;13.70;100665.00;;;;4913742;29;20237;-69
2022/04/13 01:35:42;;;;;;;7.57;3.03;;;;;13.60;100666.00;;;;4924923;29;20354;-68
2022/04/13 01:38:29;;;;;;;4.97;3.20;;;;;13.60;100667.00;;;;4923520;28;20241;-64
2022/04/13 01:41:17;;;;;;;5.73;3.20;;;;;13.50;100680.00;;;;4922536;28;20233;-68
2022/04/13 01:44:03;;;;;;;7.93;3.23;;;;;13.50;100673.00;;;;4915407;28;20241;-68
2022/04/13 01:46:48;;;;;;;5.90;3.27;;;;;13.50;100677.00;;;;4918792;28;20362;-68
2022/04/13 01:49:35;;;;;;;4.20;3.10;;;;;13.40;100673.00;;;;4912737;29;20983;-69
2022/04/13 01:52:22;;;;;;;5.53;3.43;;;;;13.40;100678.00;;;;4911522;29;20628;-66
2022/04/13 01:55:09;;;;;;;4.80;3.50;;;;;13.30;100682.00;;;;4914633;29;20240;-68
2022/04/13 01:57:56;;;;;;;5.47;3.20;;;;;13.20;100687.00;;;;4912847;29;20902;-68
2022/04/13 02:00:43;;;;;;;5.37;3.10;;;;;13.20;100698.00;;;;4913557;28;20730;-69
2022/04/13 02:03:30;;;;;;;5.73;3.30;;;;;13.20;100699.00;;;;4911613;29;20320;-69
2022/04/13 02:06:16;;;;;;;7.07;3.27;;;;;13.10;100699.00;;;;4911100;29;20233;-68
2022/04/13 02:09:03;;;;;;;4.97;3.20;;;;;13.10;100701.00;;;;4910729;29;20725;-68
2022/04/13 02:11:50;;;;;;;5.07;3.40;;;;;13.10;100693.00;;;;4912974;29;20236;-69
2022/04/13 02:14:38;;;;;;;6.53;3.63;;;;;13.00;100693.00;;;;4912351;29;20236;-69
2022/04/13 02:17:28;;;;;;;6.13;3.60;;;;;12.90;100691.00;;;;4915439;28;20609;-69
2022/04/13 02:20:15;;;;;;;5.67;3.37;;;;;12.90;100695.00;;;;4915679;29;20370;-67
2022/04/13 02:23:02;;;;;;;5.33;3.10;;;;;12.80;100687.00;;;;4922406;28;20237;-67
2022/04/13 02:25:49;;;;;;;3.67;3.10;;;;;12.70;100697.00;;;;4927899;28;20289;-69
2022/04/13 02:28:35;;;;;;;5.37;3.13;;;;;12.80;100697.00;;;;4913174;29;20249;-67
2022/04/13 02:31:23;;;;;;;4.90;3.40;;;;;12.80;100692.00;;;;4924397;28;20304;-68
2022/04/13 02:34:09;;;;;;;5.70;3.33;;;;;12.70;100699.00;;;;4927098;28;20240;-70
2022/04/13 02:36:56;;;;;;;6.30;3.40;;;;;12.70;100699.00;;;;4921107;28;20232;-67
2022/04/13 02:39:44;;;;;;;5.93;3.27;;;;;12.70;100703.00;;;;4918445;28;20638;-66
2022/04/13 02:42:34;;;;;;;3.40;3.10;;;;;12.60;100710.00;;;;4922666;28;20312;-67
2022/04/13 02:45:20;;;;;;;7.63;3.33;;;;;12.50;100708.00;;;;4924590;28;20746;-68
2022/04/13 02:48:08;;;;;;;6.93;3.47;;;;;12.40;100701.00;;;;4922589;28;20304;-70
2022/04/13 02:50:56;;;;;;;4.90;3.10;;;;;12.40;100701.00;;;;4920494;28;20300;-69
2022/04/13 02:53:42;;;;;;;5.20;3.00;;;;;12.30;100678.00;;;;4925350;28;20228;-67
2022/04/13 02:56:28;;;;;;;5.10;3.63;;;;;12.20;100705.00;;;;4908486;29;20273;-68
2022/04/13 02:59:14;;;;;;;4.13;3.33;;;;;12.20;100698.00;;;;4916085;28;20240;-67
2022/04/13 03:02:01;;;;;;;5.20;3.40;;;;;12.10;100700.00;;;;4921777;28;20225;-68
2022/04/13 03:04:49;;;;;;;3.90;2.90;;;;;12.10;100701.00;;;;4918102;29;20244;-69
2022/04/13 03:07:35;;;;;;;4.27;3.20;;;;;12.20;100695.00;;;;4908771;29;20443;-68
2022/04/13 03:10:22;;;;;;;6.30;2.90;;;;;12.10;100708.00;;;;4910867;29;20237;-68
2022/04/13 03:13:10;;;;;;;4.10;3.17;;;;;12.10;100714.00;;;;4915252;29;20346;-68
2022/04/13 03:15:56;;;;;;;5.43;2.67;;;;;12.10;100713.00;;;;4914743;28;20378;-67
2022/04/13 03:18:42;;;;;;;4.17;3.27;;;;;12.00;100714.00;;;;4918502;29;20770;-68
2022/04/13 03:21:30;;;;;;;4.83;3.03;;;;;11.90;100723.00;;;;4928361;28;20228;-68
2022/04/13 03:24:16;;;;;;;4.83;3.13;;;;;11.90;100724.00;;;;4928501;28;20241;-67
2022/04/13 03:27:03;;;;;;;4.70;2.97;;;;;11.90;100726.00;;;;4928119;28;20229;-66
2022/04/13 03:29:49;;;;;;;6.33;3.23;;;;;11.90;100731.00;;;;4925036;28;20845;-68
2022/04/13 03:32:38;;;;;;;6.87;3.30;;;;;11.90;100718.00;;;;4909068;29;20240;-65
2022/04/13 03:35:24;;;;;;;5.20;3.30;;;;;11.90;100736.00;;;;4908970;29;20233;-68
2022/04/13 03:38:12;;;;;;;8.27;3.83;;;;;11.80;100731.00;;;;4921881;28;20884;-69
2022/04/13 03:40:58;;;;;;;6.10;3.47;;;;;11.80;100739.00;;;;4913119;28;20225;-66
2022/04/13 03:43:44;;;;;;;3.73;2.93;;;;;11.80;100736.00;;;;4914850;28;20248;-68
2022/04/13 03:46:31;;;;;;;4.63;3.00;;;;;11.80;100749.00;;;;4916685;28;20861;-68
2022/04/13 03:49:17;;;;;;;6.77;3.33;;;;;11.80;100744.00;;;;4928072;28;20241;-68
2022/04/13 03:52:04;;;;;;;4.57;3.00;;;;;11.80;100745.00;;;;4908546;29;20575;-68
2022/04/13 03:54:52;;;;;;;4.53;3.20;;;;;11.80;100747.00;;;;4908462;29;20229;-68
2022/04/13 03:57:38;;;;;;;4.63;3.33;;;;;11.80;100762.00;;;;4925249;28;22474;-67
2022/04/13 04:00:26;;;;;;;5.67;3.17;;;;;11.80;100757.00;;;;4920399;28;20228;-64
2022/04/13 04:03:13;;;;;;;7.73;3.43;;;;;11.80;100753.00;;;;4922043;28;20325;-67
2022/04/13 04:05:59;;;;;;;5.80;3.50;;;;;11.80;100762.00;;;;4920672;28;20236;-68
2022/04/13 04:08:45;;;;;;;6.50;3.60;;;;;11.80;100762.00;;;;4927481;28;20244;-69
2022/04/13 04:11:33;;;;;;;6.80;3.53;;;;;11.80;100758.00;;;;4916399;28;20233;-68
2022/04/13 04:14:19;;;;;;;5.90;3.17;;;;;11.80;100761.00;;;;4908545;29;20381;-67
2022/04/13 04:17:05;;;;;;;6.53;3.23;;;;;11.70;100763.00;;;;4913861;28;20233;-68
2022/04/13 04:19:52;;;;;;;5.57;3.43;;;;;11.60;100762.00;;;;4915542;29;20240;-68
2022/04/13 04:22:38;;;;;;;4.60;3.07;;;;;11.60;100765.00;;;;4908388;29;20241;-68
2022/04/13 04:25:24;;;;;;;4.20;3.10;;;;;11.60;100760.00;;;;4908393;29;20643;-69
2022/04/13 04:28:12;;;;;;;5.57;3.03;;;;;11.60;100759.00;;;;4921758;28;20312;-68
2022/04/13 04:30:58;;;;;;;5.67;3.10;;;;;11.50;100780.00;;;;4920348;28;20224;-67
2022/04/13 04:33:45;;;;;;;4.87;3.50;;;;;11.50;100775.00;;;;4925947;28;20249;-69
2022/04/13 04:36:31;;;;;;;4.20;3.60;;;;;11.60;100781.00;;;;4923595;28;20225;-68
2022/04/13 04:39:18;;;;;;;6.00;3.63;;;;;11.50;100783.00;;;;4926220;28;20237;-67
2022/04/13 04:42:05;;;;;;;8.17;4.10;;;;;11.50;100776.00;;;;4908428;29;20235;-67
2022/04/13 04:44:57;;;;;;;6.13;3.37;;;;;11.50;100776.00;;;;4909969;29;20237;-66
2022/04/13 04:47:43;;;;;;;8.40;3.70;;;;;11.60;100785.00;;;;4907805;29;20241;-68
2022/04/13 04:50:30;;;;;;;7.77;3.50;;;;;11.50;100787.00;;;;4917348;28;20240;-66
2022/04/13 04:53:16;;;;;;;6.53;3.20;;;;;11.50;100788.00;;;;4927167;28;20228;-70
2022/04/13 04:56:02;;;;;;;6.33;3.60;;;;;11.50;100789.00;;;;4920266;28;20845;-67
2022/04/13 04:58:48;;;;;;;7.10;3.23;;;;;11.50;100796.00;;;;4915906;28;20249;-68
2022/04/13 05:01:36;;;;;;;4.90;3.33;;;;;11.60;100797.00;;;;4908917;29;20233;-69
2022/04/13 05:04:23;;;;;;;4.13;3.00;;;;;11.60;100795.00;;;;4919798;28;20289;-66
2022/04/13 05:07:09;;;;;;;7.03;3.67;;;;;11.60;100801.00;;;;4921521;28;20260;-68
2022/04/13 05:09:56;;;;;;;8.97;3.50;;;;;11.60;100800.00;;;;4919372;28;20320;-68
2022/04/13 05:12:44;;;;;;;4.50;3.33;;;;;11.70;100811.00;;;;4926864;28;20232;-67
2022/04/13 05:15:31;;;;;;;4.87;3.60;;;;;11.70;100817.00;;;;4912817;29;20323;-68
2022/04/13 05:18:19;;;;;;;6.77;3.90;;;;;11.80;100807.00;;;;4914166;28;20241;-68
2022/04/13 05:21:05;;;;;;;5.97;3.43;;;;;11.80;100811.00;;;;4915739;28;20237;-68
2022/04/13 05:23:51;;;;;;;6.63;3.23;;;;;12.00;100823.00;;;;4929698;28;20309;-67
2022/04/13 05:26:38;;;;;;;5.23;3.80;;;;;12.00;100787.00;;;;4925409;28;20232;-66
2022/04/13 05:29:25;;;;;;;5.17;3.43;;;;;12.20;100829.00;;;;4911144;29;20754;-70
2022/04/13 05:32:13;;;;;;;5.93;3.73;;;;;12.20;100822.00;;;;4911357;29;20624;-67
2022/04/13 05:35:01;;;;;;;5.77;3.83;;;;;12.30;100830.00;;;;4918455;28;20233;-66
2022/04/13 05:37:48;;;;;;;5.70;3.47;;;;;12.40;100831.00;;;;4923652;28;20237;-68
2022/04/13 05:40:34;;;;;;;5.23;3.40;;;;;12.50;100825.00;;;;4926832;28;20307;-67
2022/04/13 05:43:20;;;;;;;7.87;3.97;;;;;12.60;100838.00;;;;4911135;29;20317;-69
2022/04/13 05:46:06;;;;;;;6.43;3.37;;;;;12.70;100829.00;;;;4924078;28;20241;-70
2022/04/13 05:48:53;;;;;;;7.73;3.77;;;;;12.90;100843.00;;;;4929668;28;20232;-68
2022/04/13 05:51:41;;;;;;;5.50;3.33;;;;;13.00;100824.00;;;;4928909;28;20241;-68
2022/04/13 05:54:27;;;;;;;8.73;3.70;;;;;13.10;100844.00;;;;4922246;28;20717;-67
2022/04/13 05:57:13;;;;;;;8.03;3.43;;;;;13.20;100846.00;;;;4916381;28;20229;-68
2022/04/13 06:00:00;;;;;;;8.47;3.57;;;;;13.30;100833.00;;;;4922856;28;20297;-67
2022/04/13 06:02:46;;;;;;;6.30;3.30;;;;;13.40;100851.00;;;;4927265;28;20741;-68
2022/04/13 06:05:33;;;;;;;6.63;3.90;;;;;13.50;100871.00;;;;4910353;29;20241;-67
2022/04/13 06:08:20;;;;;;;9.10;3.40;;;;;13.60;100865.00;;;;4910631;29;20250;-69
2022/04/13 06:11:07;;;;;;;6.30;3.47;;;;;13.80;100868.00;;;;4918020;28;20711;-68
2022/04/13 06:13:53;;;;;;;7.13;4.07;;;;;13.80;100869.00;;;;4918245;28;20241;-65
2022/04/13 06:16:39;;;;;;;9.80;3.83;;;;;14.00;100866.00;;;;4910202;29;20698;-67
2022/04/13 06:19:26;;;;;;;9.50;3.97;;;;;14.10;100865.00;;;;4917953;29;20774;-69
2022/04/13 06:22:12;;;;;;;9.43;3.43;;;;;14.20;100868.00;;;;4926456;28;20292;-68
2022/04/13 06:25:02;;;;;;;8.50;3.27;;;;;14.30;100875.00;;;;4922104;28;20240;-70
2022/04/13 06:27:48;;;;;;;8.87;3.97;;;;;14.40;100883.00;;;;4928797;28;20236;-69
2022/04/13 06:30:34;;;;;;;10.87;4.50;;;;;14.50;100883.00;;;;4920306;28;20256;-69
2022/04/13 06:33:20;;;;;;;6.27;3.80;;;;;14.50;100892.00;;;;4915965;28;20229;-68
2022/04/13 06:36:08;;;;;;;5.27;3.80;;;;;14.60;100890.00;;;;4914793;28;20238;-70
2022/04/13 06:38:55;;;;;;;11.50;4.37;;;;;14.70;100886.00;;;;4921309;28;20314;-69
2022/04/13 06:41:42;;;;;;;9.97;4.67;;;;;14.80;100897.00;;;;4929096;28;20605;-70
2022/04/13 06:44:28;;;;;;;6.90;3.73;;;;;14.90;100901.00;;;;4912952;28;20715;-69
2022/04/13 06:47:15;;;;;;;9.10;4.40;;;;;15.10;100906.00;;;;4928932;28;20345;-68
2022/04/13 06:50:01;;;;;;;7.67;4.13;;;;;15.20;100907.00;;;;4915366;28;20230;-68
2022/04/13 06:52:47;;;;;;;11.07;4.77;;;;;15.30;100919.00;;;;4926957;28;20247;-66
2022/04/13 06:55:34;;;;;;;11.77;4.97;;;;;15.60;100920.00;;;;4928708;28;20248;-69
2022/04/13 06:58:22;;;;;;;7.97;4.57;;;;;15.70;100913.00;;;;4928707;28;20610;-69
2022/04/13 07:01:09;;;;;;;14.63;4.83;;;;;15.70;100917.00;;;;4922916;28;25279;-70
2022/04/13 07:03:56;;;;;;;9.70;4.83;;;;;15.70;100920.00;;;;4918922;28;20249;-71
2022/04/13 07:06:42;;;;;;;10.70;5.27;;;;;15.90;100928.00;;;;4908992;29;20794;-68
2022/04/13 07:09:29;;;;;;;10.83;4.97;;;;;16.00;100926.00;;;;4909213;29;20240;-69
2022/04/13 07:12:16;;;;;;;9.63;5.23;;;;;16.10;100928.00;;;;4920264;28;20955;-68
2022/04/13 07:15:04;;;;;;;7.80;4.83;;;;;16.20;100931.00;;;;4921810;28;20374;-70
2022/04/13 07:17:50;;;;;;;9.57;5.00;;;;;16.20;100938.00;;;;4925085;28;20658;-69
2022/04/13 07:20:37;;;;;;;9.23;5.33;;;;;16.20;100933.00;;;;4918026;28;20241;-69
2022/04/13 07:23:24;;;;;;;9.20;5.50;;;;;16.30;100939.00;;;;4927826;28;20235;-68
2022/04/13 07:26:11;;;;;;;8.67;5.57;;;;;16.40;100933.00;;;;4927979;28;20915;-70
2022/04/13 07:28:58;;;;;;;7.83;4.80;;;;;16.40;100928.00;;;;4920532;28;20269;-68
2022/04/13 07:31:45;;;;;;;13.37;5.37;;;;;16.60;100934.00;;;;4927942;28;20291;-68
2022/04/13 07:34:31;;;;;;;7.97;5.43;;;;;16.50;100944.00;;;;4927285;28;20224;-68
2022/04/13 07:37:18;;;;;;;6.40;5.10;;;;;16.60;100937.00;;;;4907199;29;20237;-67
2022/04/13 07:40:05;;;;;;;10.27;4.90;;;;;16.80;100943.00;;;;4921796;28;20236;-68
2022/04/13 07:42:52;;;;;;;12.10;5.40;;;;;16.80;100945.00;;;;4927560;28;20714;-67
2022/04/13 07:45:39;;;;;;;8.80;4.90;;;;;16.90;100949.00;;;;4926219;28;20316;-68
2022/04/13 07:48:29;;;;;;;9.53;5.10;;;;;17.10;100962.00;;;;4908775;29;20256;-68
2022/04/13 07:51:15;;;;;;;7.20;4.80;;;;;17.10;100956.00;;;;4912245;28;21031;-71
2022/04/13 07:54:02;;;;;;;7.13;4.53;;;;;17.20;100946.00;;;;4916546;28;20233;-69
2022/04/13 07:57:07;;;;;;;7.67;4.47;;;;;17.40;100950.00;;;;4908440;29;20313;-70
2022/04/13 07:59:53;;;;;;;7.57;4.70;;;;;17.50;100953.00;;;;4912820;28;20229;-69
2022/04/13 08:02:41;;;;;;;11.20;5.13;;;;;17.50;100953.00;;;;4925687;28;20236;-68
2022/04/13 08:05:29;;;;;;;13.07;5.10;;;;;17.60;100965.00;;;;4911863;29;20248;-68
2022/04/13 08:08:15;;;;;;;10.23;4.87;;;;;17.60;100970.00;;;;4924836;28;20285;-68
2022/04/13 08:11:01;;;;;;;10.77;4.53;;;;;17.70;100970.00;;;;4920609;28;20228;-68
2022/04/13 08:13:47;;;;;;;9.93;5.47;;;;;17.70;100976.00;;;;4927495;28;20789;-67
2022/04/13 08:16:35;;;;;;;8.70;5.43;;;;;17.80;100967.00;;;;4926782;28;20232;-68
2022/04/13 08:19:21;;;;;;;11.43;5.57;;;;;17.90;100974.00;;;;4908425;29;20400;-68
2022/04/13 08:22:08;;;;;;;8.27;5.30;;;;;18.00;100977.00;;;;4911399;28;20233;-69
2022/04/13 08:24:55;;;;;;;8.33;5.13;;;;;18.10;100985.00;;;;4908168;29;20305;-68
2022/04/13 08:27:42;;;;;;;12.13;5.17;;;;;18.30;100986.00;;;;4907212;29;20245;-68
2022/04/13 08:30:29;;;;;;;12.23;5.03;;;;;18.60;100991.00;;;;4908418;29;20289;-68
2022/04/13 08:33:15;;;;;;;8.53;5.57;;;;;18.70;100986.00;;;;4914004;28;20842;-66
2022/04/13 08:36:01;;;;;;;9.33;5.10;;;;;18.80;100999.00;;;;4912298;28;20281;-67
2022/04/13 08:38:48;;;;;;;7.70;5.67;;;;;19.00;100999.00;;;;4908015;29;20249;-66
2022/04/13 08:41:43;;;;;;;10.73;5.30;;;;;19.30;100999.00;;;;4916340;28;20229;-69
2022/04/13 08:44:36;;;;;;;13.50;6.07;;;;;19.30;101000.00;;;;4913568;28;20855;-68
2022/04/13 08:47:24;;;;;;;10.83;5.57;;;;;19.50;101007.00;;;;4909213;29;20313;-70
2022/04/13 08:50:11;;;;;;;6.60;4.97;;;;;19.70;101002.00;;;;4917383;28;20766;-73
2022/04/13 08:52:59;;;;;;;11.23;5.83;;;;;19.70;101004.00;;;;4911666;29;20236;-69
2022/04/13 08:55:54;;;;;;;7.27;5.33;;;;;19.70;100989.00;;;;4908582;29;20625;-69
2022/04/13 08:58:49;;;;;;;9.60;5.07;;;;;19.80;101004.00;;;;4913572;29;20383;-67
2022/04/13 09:01:39;;;;;;;9.03;5.30;;;;;19.80;101001.00;;;;4911918;29;20742;-69
2022/04/13 09:04:29;;;;;;;10.63;5.67;;;;;19.90;101003.00;;;;4911801;29;20739;-69
2022/04/13 09:07:18;;;;;;;10.30;5.40;;;;;19.90;100998.00;;;;4926057;28;20749;-70
2022/04/13 09:10:10;;;;;;;9.43;5.37;;;;;20.00;101005.00;;;;4924172;28;20237;-73
2022/04/13 09:12:58;;;;;;;9.90;5.40;;;;;20.20;101011.00;;;;4911433;29;20231;-71
2022/04/13 09:15:45;;;;;;;12.93;5.50;;;;;20.30;101016.00;;;;4911638;29;20362;-69
2022/04/13 09:18:34;;;;;;;9.40;5.07;;;;;20.40;101013.00;;;;4918585;29;20375;-70
2022/04/13 09:21:21;;;;;;;11.60;5.33;;;;;20.50;101022.00;;;;4926230;28;20236;-72
2022/04/13 09:24:14;;;;;;;8.50;4.50;;;;;20.90;101011.00;;;;4925740;28;20233;-69
2022/04/13 09:27:01;;;;;;;9.10;5.03;;;;;20.80;101021.00;;;;4923457;28;20624;-67
2022/04/13 09:29:50;;;;;;;7.63;4.70;;;;;20.90;101012.00;;;;4930567;28;20623;-72
2022/04/13 09:32:37;;;;;;;9.63;4.77;;;;;20.90;100990.00;;;;4930360;28;20233;-71
2022/04/13 09:35:24;;;;;;;7.83;4.27;;;;;21.40;101017.00;;;;4922524;28;20253;-70
2022/04/13 09:38:10;;;;;;;5.30;4.10;;;;;21.30;101011.00;;;;4930074;28;20241;-72
2022/04/13 09:41:06;;;;;;;7.23;3.97;;;;;21.40;100995.00;;;;4922748;28;20231;-73
2022/04/13 09:43:55;;;;;;;7.57;3.50;;;;;21.60;101009.00;;;;4929850;28;20234;-70
2022/04/13 09:46:43;;;;;;;6.40;3.40;;;;;21.80;101012.00;;;;4929607;28;20243;-71
2022/04/13 09:49:30;;;;;;;4.43;2.50;;;;;21.70;101013.00;;;;4914149;28;20267;-70
2022/04/13 09:52:16;;;;;;;5.40;3.10;;;;;21.90;101017.00;;;;4919823;28;20235;-73
2022/04/13 09:55:05;;;;;;;6.03;3.03;;;;;21.90;101009.00;;;;4923042;28;20260;-69
2022/04/13 09:57:51;;;;;;;5.37;2.33;;;;;21.60;101014.00;;;;4930263;28;20235;-72
2022/04/13 10:00:38;;;;;;;4.10;2.90;;;;;21.40;101023.00;;;;4931283;28;20235;-70
2022/04/13 10:03:26;;;;;;;4.37;2.87;;;;;21.30;101020.00;;;;4916655;28;20321;-71
2022/04/13 10:06:27;;;;;;;6.43;2.43;;;;;21.10;101029.00;;;;4916979;28;20282;-71
2022/04/13 10:09:13;;;;;;;4.87;2.40;;;;;21.10;101028.00;;;;4929599;28;20336;-71
2022/04/13 10:12:02;;;;;;;4.60;2.67;;;;;21.20;101029.00;;;;4933432;28;20239;-74
2022/04/13 10:14:48;;;;;;;5.73;2.70;;;;;21.20;101030.00;;;;4923460;29;20240;-70
2022/04/13 10:17:35;;;;;;;5.83;3.00;;;;;21.30;101025.00;;;;4930445;28;20828;-71
2022/04/13 10:20:23;;;;;;;6.67;3.17;;;;;21.40;101025.00;;;;4918317;29;20227;-73
2022/04/13 10:23:09;;;;;;;5.07;3.17;;;;;21.50;101031.00;;;;4929471;28;20242;-72
2022/04/13 10:26:10;;;;;;;6.33;3.40;;;;;21.60;101029.00;;;;4914298;28;20689;-72
2022/04/13 10:28:56;;;;;;;6.80;3.03;;;;;21.30;101031.00;;;;4915739;28;20230;-72
2022/04/13 10:32:01;;;;;;;3.53;2.67;;;;;21.60;101038.00;;;;4927405;28;20778;-72
2022/04/13 10:34:49;;;;;;;5.87;3.23;;;;;21.80;101052.00;;;;4926451;28;20239;-70
2022/04/13 10:37:37;;;;;;;8.90;4.57;;;;;22.00;101043.00;;;;4911421;29;20227;-69
2022/04/13 10:40:25;;;;;;;5.50;3.60;;;;;22.20;101041.00;;;;4916869;28;20353;-74
2022/04/13 10:43:13;;;;;;;6.33;3.17;;;;;22.10;101039.00;;;;4923442;28;20292;-70
2022/04/13 10:45:59;;;;;;;4.23;2.77;;;;;22.10;101050.00;;;;4909975;29;20715;-72
2022/04/13 10:48:47;;;;;;;4.90;2.67;;;;;22.30;101051.00;;;;4927804;28;20247;-71
2022/04/13 10:51:36;;;;;;;6.47;2.90;;;;;22.70;101061.00;;;;4925876;28;20255;-71
2022/04/13 10:54:29;;;;;;;5.97;2.90;;;;;23.00;101047.00;;;;4918994;28;20272;-72
2022/04/13 10:57:20;;;;;;;3.87;2.63;;;;;23.00;101043.00;;;;4923773;28;20460;-71
2022/04/13 11:00:10;;;;;;;6.90;2.70;;;;;23.20;101047.00;;;;4909585;29;20289;-73
2022/04/13 11:02:59;;;;;;;4.73;2.73;;;;;23.50;101059.00;;;;4920909;28;20224;-73
2022/04/13 11:05:46;;;;;;;7.30;3.33;;;;;23.20;101057.00;;;;4908051;29;20238;-72
2022/04/13 11:08:44;;;;;;;8.20;3.20;;;;;23.10;101051.00;;;;4925633;28;20749;-73
2022/04/13 11:11:35;;;;;;;3.57;2.77;;;;;22.80;101064.00;;;;4928189;28;20233;-70
2022/04/13 11:14:22;;;;;;;3.10;2.23;;;;;22.90;101078.00;;;;4928223;28;20285;-71
2022/04/13 11:17:29;;;;;;;5.07;2.90;;;;;22.90;101065.00;;;;4920678;28;20253;-70
2022/04/13 11:20:18;;;;;;;5.73;3.07;;;;;23.20;101074.00;;;;4913593;29;21526;-69
2022/04/13 11:23:13;;;;;;;5.77;3.13;;;;;23.20;101065.00;;;;4915465;28;20237;-69
2022/04/13 11:26:01;;;;;;;7.23;3.10;;;;;23.30;101067.00;;;;4927817;28;20284;-72
2022/04/13 11:29:13;;;;;;;4.40;3.03;;;;;22.80;101066.00;;;;4925516;28;20264;-74
2022/04/13 11:32:09;;;;;;;4.03;2.70;;;;;22.80;101073.00;;;;4920837;28;20786;-72
2022/04/13 11:34:59;;;;;;;5.80;3.53;;;;;22.90;101071.00;;;;4916695;28;20227;-74
2022/04/13 11:37:45;;;;;;;9.03;3.70;;;;;22.80;101083.00;;;;4911006;29;20241;-71
2022/04/13 11:40:32;;;;;;;5.90;3.20;;;;;22.80;101082.00;;;;4927776;28;20308;-71
2022/04/13 11:43:22;;;;;;;4.10;2.70;;;;;22.50;101080.00;;;;4928065;28;20353;-73
2022/04/13 11:46:35;;;;;;;6.97;3.23;;;;;22.50;101082.00;;;;4908746;29;20703;-70
2022/04/13 11:49:32;;;;;;;5.07;3.20;;;;;22.80;101099.00;;;;4923343;28;20237;-72
2022/04/13 11:52:41;;;;;;;4.90;3.30;;;;;22.70;101096.00;;;;4922433;28;20232;-69
2022/04/13 11:55:31;;;;;;;7.27;3.60;;;;;22.90;101096.00;;;;4923989;28;20233;-71
2022/04/13 11:58:22;;;;;;;5.27;3.30;;;;;22.70;101090.00;;;;4923051;28;20245;-72
2022/04/13 12:01:12;;;;;;;5.53;3.87;;;;;22.70;101095.00;;;;4921875;28;20594;-73
2022/04/13 12:04:02;;;;;;;5.27;3.50;;;;;23.00;101084.00;;;;4916654;29;20233;-73
2022/04/13 12:06:49;;;;;;;7.40;3.00;;;;;23.20;101092.00;;;;4915734;29;20284;-74
2022/04/13 12:09:36;;;;;;;7.13;3.23;;;;;23.40;101108.00;;;;4923776;28;20245;-72
2022/04/13 12:12:23;;;;;;;6.53;4.10;;;;;23.60;101104.00;;;;4908535;29;20249;-74
2022/04/13 12:15:09;;;;;;;10.90;4.27;;;;;23.50;101107.00;;;;4921763;28;20289;-72
2022/04/13 12:17:56;;;;;;;12.57;4.27;;;;;23.60;101099.00;;;;4926719;28;20232;-70
2022/04/13 12:20:44;;;;;;;8.87;3.83;;;;;23.80;101095.00;;;;4912117;29;20229;-73
2022/04/13 12:23:30;;;;;;;5.77;3.77;;;;;23.90;101114.00;;;;4916092;28;20240;-72
2022/04/13 12:26:17;;;;;;;4.77;3.03;;;;;24.10;101102.00;;;;4927009;28;20232;-73
2022/04/13 12:29:12;;;;;;;4.93;2.90;;;;;24.10;101114.00;;;;4920307;28;20639;-72
2022/04/13 12:31:59;;;;;;;4.20;2.87;;;;;24.30;101103.00;;;;4920205;28;20229;-72
2022/04/13 12:34:45;;;;;;;6.23;2.97;;;;;24.10;101113.00;;;;4924874;28;20346;-72
2022/04/13 12:37:33;;;;;;;5.23;2.50;;;;;24.30;101114.00;;;;4907720;29;20333;-74
2022/04/13 12:40:22;;;;;;;4.53;2.63;;;;;24.40;101100.00;;;;4922913;28;20730;-69
2022/04/13 12:43:10;;;;;;;4.77;2.97;;;;;24.50;101114.00;;;;4913423;29;20313;-71
2022/04/13 12:45:57;;;;;;;7.07;3.27;;;;;24.40;101120.00;;;;4908388;29;20228;-73
2022/04/13 12:48:46;;;;;;;5.77;3.10;;;;;24.50;101110.00;;;;4917693;29;20782;-73
2022/04/13 12:51:34;;;;;;;8.57;3.97;;;;;24.30;101116.00;;;;4926121;28;20382;-70
2022/04/13 12:54:22;;;;;;;5.27;3.30;;;;;24.20;101116.00;;;;4927708;28;20260;-73
2022/04/13 12:57:08;;;;;;;6.87;4.00;;;;;23.50;101118.00;;;;4913851;29;20233;-72
2022/04/13 12:59:56;;;;;;;6.30;3.57;;;;;23.30;101130.00;;;;4911299;29;20592;-72
2022/04/13 13:02:50;;;;;;;6.70;3.67;;;;;23.50;101135.00;;;;4908822;29;20289;-73
2022/04/13 13:05:37;;;;;;;6.67;3.80;;;;;23.50;101125.00;;;;4917651;28;20225;-73
2022/04/13 13:08:23;;;;;;;6.63;4.50;;;;;23.40;101135.00;;;;4912872;29;20777;-71
2022/04/13 13:11:11;;;;;;;8.00;4.63;;;;;23.40;101124.00;;;;4921699;28;20411;-74
2022/04/13 13:14:05;;;;;;;6.93;4.03;;;;;23.70;101125.00;;;;4919895;28;20236;-72
2022/04/13 13:16:52;;;;;;;6.87;3.90;;;;;23.50;101126.00;;;;4926825;28;20266;-71
2022/04/13 13:19:38;;;;;;;7.27;4.23;;;;;23.60;101125.00;;;;4922550;28;20236;-72
2022/04/13 13:22:28;;;;;;;6.40;3.90;;;;;23.50;101132.00;;;;4926882;28;20233;-77
2022/04/13 13:25:15;;;;;;;6.57;3.87;;;;;23.40;101137.00;;;;4921753;28;20365;-72
2022/04/13 13:28:03;;;;;;;8.43;4.40;;;;;23.40;101129.00;;;;4919628;28;20228;-71
2022/04/13 13:30:52;;;;;;;5.07;3.93;;;;;23.50;101134.00;;;;4919101;28;20241;-71
2022/04/13 13:33:51;;;;;;;8.33;4.00;;;;;23.40;101120.00;;;;4907866;29;20325;-70
2022/04/13 13:36:38;;;;;;;6.67;4.97;;;;;23.70;101129.00;;;;4910865;29;21537;-74
2022/04/13 13:39:24;;;;;;;5.60;3.93;;;;;24.00;101135.00;;;;4930169;28;20236;-72
2022/04/13 13:42:10;;;;;;;7.43;5.20;;;;;24.00;101138.00;;;;4911299;29;20796;-72
2022/04/13 13:45:15;;;;;;;6.50;4.87;;;;;24.00;101131.00;;;;4913472;29;20592;-71
2022/04/13 13:48:03;;;;;;;9.33;5.47;;;;;23.70;101132.00;;;;4916565;28;20237;-68
2022/04/13 13:50:51;;;;;;;8.57;6.30;;;;;23.50;101131.00;;;;4913446;29;20242;-69